sensor_id;sensor_type;location;lat;lon;timestamp;pressure;altitude;pressure_sealevel;temperature;humidity
76460;BME280;65299;46.084;18.762;2023-11-19T00:01:16;101283.84;;;5.12;64.95
76460;BME280;65299;46.084;18.762;2023-11-19T00:04:16;101290.53;;;5.01;65.06
76460;BME280;65299;46.084;18.762;2023-11-19T00:07:17;101286.06;;;5.01;65.23
76460;BME280;65299;46.084;18.762;2023-11-19T00:10:17;101290.53;;;4.94;65.76
76460;BME280;65299;46.084;18.762;2023-11-19T00:13:21;101280.81;;;4.75;65.76
76460;BME280;65299;46.084;18.762;2023-11-19T00:16:21;101290.06;;;4.58;66.19
76460;BME280;65299;46.084;18.762;2023-11-19T00:19:22;101298.53;;;4.47;66.90
76460;BME280;65299;46.084;18.762;2023-11-19T00:22:22;101299.16;;;4.62;66.58
76460;BME280;65299;46.084;18.762;2023-11-19T00:25:23;101303.63;;;4.68;66.76
76460;BME280;65299;46.084;18.762;2023-11-19T00:28:23;101301.75;;;4.43;67.34
76460;BME280;65299;46.084;18.762;2023-11-19T00:31:24;101317.84;;;4.20;67.53
76460;BME280;65299;46.084;18.762;2023-11-19T00:34:28;101316.31;;;3.98;68.29
76460;BME280;65299;46.084;18.762;2023-11-19T00:37:28;101320.63;;;4.12;68.11
76460;BME280;65299;46.084;18.762;2023-11-19T00:40:29;101317.38;;;4.10;68.80
76460;BME280;65299;46.084;18.762;2023-11-19T00:43:29;101315.91;;;3.94;69.17
76460;BME280;65299;46.084;18.762;2023-11-19T00:46:29;101307.41;;;3.92;68.96
76460;BME280;65299;46.084;18.762;2023-11-19T00:49:31;101302.66;;;4.09;68.38
76460;BME280;65299;46.084;18.762;2023-11-19T00:52:32;101314.88;;;4.30;67.25
76460;BME280;65299;46.084;18.762;2023-11-19T00:55:33;101322.91;;;4.28;67.39
76460;BME280;65299;46.084;18.762;2023-11-19T00:58:33;101327.25;;;4.49;67.03
76460;BME280;65299;46.084;18.762;2023-11-19T01:01:34;101323.81;;;4.55;66.76
76460;BME280;65299;46.084;18.762;2023-11-19T01:04:35;101318.78;;;4.60;66.63
76460;BME280;65299;46.084;18.762;2023-11-19T01:07:35;101310.22;;;4.38;66.82
76460;BME280;65299;46.084;18.762;2023-11-19T01:10:38;101317.47;;;4.23;67.96
76460;BME280;65299;46.084;18.762;2023-11-19T01:13:39;101302.31;;;4.25;67.44
76460;BME280;65299;46.084;18.762;2023-11-19T01:16:39;101306.44;;;4.00;68.23
76460;BME280;65299;46.084;18.762;2023-11-19T01:19:40;101300.16;;;3.94;68.65
76460;BME280;65299;46.084;18.762;2023-11-19T01:22:40;101304.19;;;3.56;70.06
76460;BME280;65299;46.084;18.762;2023-11-19T01:25:41;101313.16;;;3.75;69.48
76460;BME280;65299;46.084;18.762;2023-11-19T01:28:41;101298.91;;;3.90;69.43
76460;BME280;65299;46.084;18.762;2023-11-19T01:31:46;101301.59;;;4.03;68.82
76460;BME280;65299;46.084;18.762;2023-11-19T01:34:51;101291.28;;;4.02;68.83
76460;BME280;65299;46.084;18.762;2023-11-19T01:37:51;101284.59;;;3.99;68.49
76460;BME280;65299;46.084;18.762;2023-11-19T01:40:56;101280.47;;;3.77;68.99
76460;BME280;65299;46.084;18.762;2023-11-19T01:43:57;101286.22;;;3.32;70.98
76460;BME280;65299;46.084;18.762;2023-11-19T01:46:57;101294.34;;;3.37;70.87
76460;BME280;65299;46.084;18.762;2023-11-19T01:49:58;101280.88;;;3.74;70.07
76460;BME280;65299;46.084;18.762;2023-11-19T01:52:59;101280.75;;;3.89;69.61
76460;BME280;65299;46.084;18.762;2023-11-19T01:56:00;101300.13;;;3.54;70.27
76460;BME280;65299;46.084;18.762;2023-11-19T01:59:02;101302.03;;;3.66;69.96
76460;BME280;65299;46.084;18.762;2023-11-19T02:02:03;101290.09;;;3.64;69.69
76460;BME280;65299;46.084;18.762;2023-11-19T02:05:03;101284.53;;;3.46;70.52
76460;BME280;65299;46.084;18.762;2023-11-19T02:08:04;101293.78;;;3.42;70.36
76460;BME280;65299;46.084;18.762;2023-11-19T02:11:05;101285.97;;;3.48;70.57
76460;BME280;65299;46.084;18.762;2023-11-19T02:14:07;101273.84;;;3.47;70.11
76460;BME280;65299;46.084;18.762;2023-11-19T02:17:25;101267.81;;;3.53;69.87
76460;BME280;65299;46.084;18.762;2023-11-19T02:20:26;101266.66;;;3.62;69.74
76460;BME280;65299;46.084;18.762;2023-11-19T02:23:27;101258.78;;;3.62;69.48
76460;BME280;65299;46.084;18.762;2023-11-19T02:26:51;101257.41;;;3.73;69.35
76460;BME280;65299;46.084;18.762;2023-11-19T02:29:56;101251.94;;;3.68;69.21
76460;BME280;65299;46.084;18.762;2023-11-19T02:32:58;101238.81;;;3.68;69.67
76460;BME280;65299;46.084;18.762;2023-11-19T02:36:01;101242.69;;;3.72;69.51
76460;BME280;65299;46.084;18.762;2023-11-19T02:39:03;101249.63;;;3.52;69.67
76460;BME280;65299;46.084;18.762;2023-11-19T02:42:08;101247.38;;;3.49;69.70
76460;BME280;65299;46.084;18.762;2023-11-19T02:45:09;101230.56;;;3.36;70.06
76460;BME280;65299;46.084;18.762;2023-11-19T02:48:14;101234.44;;;3.41;70.22
76460;BME280;65299;46.084;18.762;2023-11-19T02:51:15;101236.44;;;3.38;69.81
76460;BME280;65299;46.084;18.762;2023-11-19T02:54:16;101246.97;;;3.45;69.92
76460;BME280;65299;46.084;18.762;2023-11-19T02:57:16;101248.09;;;3.29;69.84
76460;BME280;65299;46.084;18.762;2023-11-19T03:00:21;101237.97;;;3.26;70.39
76460;BME280;65299;46.084;18.762;2023-11-19T03:03:28;101232.38;;;3.36;69.72
76460;BME280;65299;46.084;18.762;2023-11-19T03:06:38;101217.69;;;3.42;69.72
76460;BME280;65299;46.084;18.762;2023-11-19T03:09:39;101203.72;;;3.34;69.51
76460;BME280;65299;46.084;18.762;2023-11-19T03:12:41;101207.09;;;3.28;69.61
76460;BME280;65299;46.084;18.762;2023-11-19T03:15:41;101194.25;;;3.33;69.48
76460;BME280;65299;46.084;18.762;2023-11-19T03:18:42;101191.22;;;3.36;69.51
76460;BME280;65299;46.084;18.762;2023-11-19T03:21:42;101192.59;;;3.32;69.51
76460;BME280;65299;46.084;18.762;2023-11-19T03:24:43;101199.78;;;3.17;70.28
76460;BME280;65299;46.084;18.762;2023-11-19T03:27:43;101205.97;;;3.10;70.12
76460;BME280;65299;46.084;18.762;2023-11-19T03:30:44;101208.19;;;3.06;70.72
76460;BME280;65299;46.084;18.762;2023-11-19T03:33:44;101196.41;;;2.96;71.35
76460;BME280;65299;46.084;18.762;2023-11-19T03:36:45;101196.19;;;2.97;71.68
76460;BME280;65299;46.084;18.762;2023-11-19T03:39:45;101196.19;;;2.97;71.59
76460;BME280;65299;46.084;18.762;2023-11-19T03:42:46;101195.16;;;2.92;71.18
76460;BME280;65299;46.084;18.762;2023-11-19T03:45:46;101186.25;;;2.86;71.68
76460;BME280;65299;46.084;18.762;2023-11-19T03:48:48;101171.50;;;2.85;72.43
76460;BME280;65299;46.084;18.762;2023-11-19T03:51:49;101174.56;;;2.61;72.97
76460;BME280;65299;46.084;18.762;2023-11-19T03:54:50;101177.31;;;2.53;73.55
76460;BME280;65299;46.084;18.762;2023-11-19T03:57:50;101176.69;;;2.51;73.98
76460;BME280;65299;46.084;18.762;2023-11-19T04:00:50;101166.59;;;2.48;74.20
76460;BME280;65299;46.084;18.762;2023-11-19T04:03:51;101160.16;;;2.50;73.92
76460;BME280;65299;46.084;18.762;2023-11-19T04:06:51;101161.38;;;2.48;73.75
76460;BME280;65299;46.084;18.762;2023-11-19T04:09:51;101158.00;;;2.33;74.70
76460;BME280;65299;46.084;18.762;2023-11-19T04:12:52;101153.16;;;2.30;74.44
76460;BME280;65299;46.084;18.762;2023-11-19T04:15:52;101152.19;;;2.59;73.79
76460;BME280;65299;46.084;18.762;2023-11-19T04:18:53;101135.38;;;2.74;73.38
76460;BME280;65299;46.084;18.762;2023-11-19T04:21:53;101123.47;;;3.06;72.19
76460;BME280;65299;46.084;18.762;2023-11-19T04:24:54;101127.66;;;3.00;71.52
76460;BME280;65299;46.084;18.762;2023-11-19T04:27:54;101132.28;;;2.98;71.73
76460;BME280;65299;46.084;18.762;2023-11-19T04:30:54;101143.50;;;3.13;70.79
76460;BME280;65299;46.084;18.762;2023-11-19T04:33:55;101137.00;;;3.09;70.78
76460;BME280;65299;46.084;18.762;2023-11-19T04:36:55;101122.47;;;3.07;70.73
76460;BME280;65299;46.084;18.762;2023-11-19T04:39:56;101121.22;;;3.03;71.09
76460;BME280;65299;46.084;18.762;2023-11-19T04:42:56;101128.16;;;2.55;72.11
76460;BME280;65299;46.084;18.762;2023-11-19T04:45:57;101121.31;;;2.54;73.20
76460;BME280;65299;46.084;18.762;2023-11-19T04:48:57;101123.16;;;2.60;72.98
76460;BME280;65299;46.084;18.762;2023-11-19T04:51:58;101114.50;;;2.94;72.06
76460;BME280;65299;46.084;18.762;2023-11-19T04:54:59;101116.66;;;3.11;70.99
76460;BME280;65299;46.084;18.762;2023-11-19T04:57:59;101116.66;;;2.84;72.13
76460;BME280;65299;46.084;18.762;2023-11-19T05:01:00;101101.50;;;2.79;72.25
76460;BME280;65299;46.084;18.762;2023-11-19T05:04:00;101092.63;;;2.46;73.49
76460;BME280;65299;46.084;18.762;2023-11-19T05:07:01;101082.84;;;2.61;73.27
76460;BME280;65299;46.084;18.762;2023-11-19T05:10:01;101078.91;;;2.72;73.19
76460;BME280;65299;46.084;18.762;2023-11-19T05:13:03;101088.94;;;3.02;71.73
76460;BME280;65299;46.084;18.762;2023-11-19T05:16:04;101096.94;;;2.88;72.02
76460;BME280;65299;46.084;18.762;2023-11-19T05:19:05;101103.03;;;2.67;72.82
76460;BME280;65299;46.084;18.762;2023-11-19T05:22:05;101104.56;;;2.27;74.41
76460;BME280;65299;46.084;18.762;2023-11-19T05:25:06;101108.44;;;2.59;73.75
76460;BME280;65299;46.084;18.762;2023-11-19T05:28:07;101114.44;;;2.53;73.93
76460;BME280;65299;46.084;18.762;2023-11-19T05:31:08;101113.50;;;2.61;73.58
76460;BME280;65299;46.084;18.762;2023-11-19T05:34:08;101121.72;;;2.85;73.16
76460;BME280;65299;46.084;18.762;2023-11-19T05:37:08;101120.56;;;2.94;72.06
76460;BME280;65299;46.084;18.762;2023-11-19T05:40:10;101127.72;;;2.51;73.55
76460;BME280;65299;46.084;18.762;2023-11-19T05:43:21;101118.53;;;2.62;73.48
76460;BME280;65299;46.084;18.762;2023-11-19T05:46:21;101125.66;;;2.68;73.88
76460;BME280;65299;46.084;18.762;2023-11-19T05:49:22;101113.00;;;2.78;73.38
76460;BME280;65299;46.084;18.762;2023-11-19T05:52:23;101118.09;;;2.86;73.25
76460;BME280;65299;46.084;18.762;2023-11-19T05:55:23;101120.72;;;2.86;73.19
76460;BME280;65299;46.084;18.762;2023-11-19T05:58:25;101119.44;;;3.10;72.74
76460;BME280;65299;46.084;18.762;2023-11-19T06:01:31;101114.19;;;3.10;72.63
76460;BME280;65299;46.084;18.762;2023-11-19T06:04:31;101115.06;;;3.17;73.03
76460;BME280;65299;46.084;18.762;2023-11-19T06:07:32;101111.06;;;3.27;72.30
76460;BME280;65299;46.084;18.762;2023-11-19T06:10:33;101107.22;;;3.23;72.46
76460;BME280;65299;46.084;18.762;2023-11-19T06:13:34;101103.59;;;3.78;70.90
76460;BME280;65299;46.084;18.762;2023-11-19T06:16:34;101099.16;;;3.92;70.22
76460;BME280;65299;46.084;18.762;2023-11-19T06:19:35;101079.94;;;3.72;71.50
76460;BME280;65299;46.084;18.762;2023-11-19T06:22:35;101089.06;;;3.82;70.83
76460;BME280;65299;46.084;18.762;2023-11-19T06:25:35;101081.34;;;3.68;71.44
76460;BME280;65299;46.084;18.762;2023-11-19T06:28:36;101084.25;;;3.99;70.46
76460;BME280;65299;46.084;18.762;2023-11-19T06:31:40;101077.75;;;4.28;69.46
76460;BME280;65299;46.084;18.762;2023-11-19T06:34:41;101088.28;;;4.34;69.62
76460;BME280;65299;46.084;18.762;2023-11-19T06:37:42;101093.13;;;4.11;70.67
76460;BME280;65299;46.084;18.762;2023-11-19T06:40:42;101088.69;;;4.05;70.96
76460;BME280;65299;46.084;18.762;2023-11-19T06:43:42;101088.28;;;3.95;71.21
76460;BME280;65299;46.084;18.762;2023-11-19T06:46:43;101086.66;;;4.07;71.25
76460;BME280;65299;46.084;18.762;2023-11-19T06:49:44;101081.81;;;4.37;70.15
76460;BME280;65299;46.084;18.762;2023-11-19T06:52:45;101083.38;;;4.70;69.22
76460;BME280;65299;46.084;18.762;2023-11-19T06:55:46;101093.13;;;4.70;69.76
76460;BME280;65299;46.084;18.762;2023-11-19T06:58:47;101083.81;;;4.80;70.32
76460;BME280;65299;46.084;18.762;2023-11-19T07:01:48;101078.47;;;5.07;70.22
76460;BME280;65299;46.084;18.762;2023-11-19T07:04:49;101092.94;;;5.35;69.49
76460;BME280;65299;46.084;18.762;2023-11-19T07:07:49;101077.06;;;5.48;69.01
76460;BME280;65299;46.084;18.762;2023-11-19T07:10:50;101080.34;;;5.81;68.51
76460;BME280;65299;46.084;18.762;2023-11-19T07:13:50;101074.03;;;5.89;68.16
76460;BME280;65299;46.084;18.762;2023-11-19T07:16:50;101082.38;;;5.79;68.94
76460;BME280;65299;46.084;18.762;2023-11-19T07:19:51;101092.22;;;5.97;68.73
76460;BME280;65299;46.084;18.762;2023-11-19T07:22:51;101078.78;;;5.74;69.16
76460;BME280;65299;46.084;18.762;2023-11-19T07:25:52;101081.34;;;5.80;67.71
76460;BME280;65299;46.084;18.762;2023-11-19T07:28:53;101083.88;;;5.62;68.08
76460;BME280;65299;46.084;18.762;2023-11-19T07:31:55;101081.56;;;5.79;67.32
76460;BME280;65299;46.084;18.762;2023-11-19T07:34:56;101075.09;;;6.13;66.89
76460;BME280;65299;46.084;18.762;2023-11-19T07:37:57;101076.34;;;6.59;64.59
76460;BME280;65299;46.084;18.762;2023-11-19T07:40:57;101072.22;;;6.63;65.63
76460;BME280;65299;46.084;18.762;2023-11-19T07:43:58;101061.53;;;6.77;64.32
76460;BME280;65299;46.084;18.762;2023-11-19T07:46:58;101066.44;;;6.73;63.23
76460;BME280;65299;46.084;18.762;2023-11-19T07:49:59;101042.56;;;6.86;63.04
76460;BME280;65299;46.084;18.762;2023-11-19T07:52:59;101053.09;;;6.68;62.87
76460;BME280;65299;46.084;18.762;2023-11-19T07:56:00;101039.69;;;6.51;62.72
76460;BME280;65299;46.084;18.762;2023-11-19T07:59:02;101032.44;;;6.65;62.77
76460;BME280;65299;46.084;18.762;2023-11-19T08:02:02;101037.38;;;6.98;62.62
76460;BME280;65299;46.084;18.762;2023-11-19T08:05:05;101036.06;;;7.36;62.44
76460;BME280;65299;46.084;18.762;2023-11-19T08:08:06;101045.09;;;7.29;63.98
76460;BME280;65299;46.084;18.762;2023-11-19T08:11:07;101045.66;;;7.49;62.59
76460;BME280;65299;46.084;18.762;2023-11-19T08:14:07;101052.22;;;7.28;62.67
76460;BME280;65299;46.084;18.762;2023-11-19T08:17:08;101043.72;;;7.56;60.62
76460;BME280;65299;46.084;18.762;2023-11-19T08:20:09;101044.47;;;7.75;59.88
76460;BME280;65299;46.084;18.762;2023-11-19T08:23:10;101038.78;;;8.01;58.68
76460;BME280;65299;46.084;18.762;2023-11-19T08:26:11;101037.97;;;8.00;59.79
76460;BME280;65299;46.084;18.762;2023-11-19T08:29:11;101043.22;;;8.30;60.56
76460;BME280;65299;46.084;18.762;2023-11-19T08:32:11;101049.06;;;8.20;60.87
76460;BME280;65299;46.084;18.762;2023-11-19T08:35:12;101043.72;;;7.86;61.90
76460;BME280;65299;46.084;18.762;2023-11-19T08:38:12;101041.56;;;8.06;61.75
76460;BME280;65299;46.084;18.762;2023-11-19T08:41:13;101046.94;;;7.99;61.64
76460;BME280;65299;46.084;18.762;2023-11-19T08:44:13;101041.66;;;7.99;61.57
76460;BME280;65299;46.084;18.762;2023-11-19T08:47:14;101047.72;;;7.47;62.28
76460;BME280;65299;46.084;18.762;2023-11-19T08:50:16;101042.81;;;7.62;61.51
76460;BME280;65299;46.084;18.762;2023-11-19T08:53:16;101038.84;;;7.71;61.17
76460;BME280;65299;46.084;18.762;2023-11-19T08:56:17;101037.47;;;7.80;60.51
76460;BME280;65299;46.084;18.762;2023-11-19T08:59:17;101043.97;;;7.66;60.01
76460;BME280;65299;46.084;18.762;2023-11-19T09:02:19;101038.84;;;7.41;60.42
76460;BME280;65299;46.084;18.762;2023-11-19T09:05:19;101026.69;;;7.40;58.94
76460;BME280;65299;46.084;18.762;2023-11-19T09:08:19;101014.03;;;7.31;58.67
76460;BME280;65299;46.084;18.762;2023-11-19T09:11:20;101006.09;;;7.13;59.60
76460;BME280;65299;46.084;18.762;2023-11-19T09:14:20;100994.22;;;7.22;60.05
76460;BME280;65299;46.084;18.762;2023-11-19T09:17:25;100979.63;;;7.49;59.88
76460;BME280;65299;46.084;18.762;2023-11-19T09:20:26;100965.34;;;7.09;60.26
76460;BME280;65299;46.084;18.762;2023-11-19T09:23:26;100965.81;;;7.06;59.68
76460;BME280;65299;46.084;18.762;2023-11-19T09:26:29;100959.53;;;6.89;59.39
76460;BME280;65299;46.084;18.762;2023-11-19T09:29:33;100967.81;;;6.92;59.71
76460;BME280;65299;46.084;18.762;2023-11-19T09:32:34;100970.38;;;7.28;59.24
76460;BME280;65299;46.084;18.762;2023-11-19T09:35:34;100965.41;;;7.62;58.79
76460;BME280;65299;46.084;18.762;2023-11-19T09:38:34;100951.81;;;7.35;60.17
76460;BME280;65299;46.084;18.762;2023-11-19T09:41:38;100922.41;;;7.31;60.78
76460;BME280;65299;46.084;18.762;2023-11-19T09:44:38;100922.59;;;8.17;59.18
76460;BME280;65299;46.084;18.762;2023-11-19T09:47:43;100932.16;;;8.07;58.46
76460;BME280;65299;46.084;18.762;2023-11-19T09:50:47;100931.44;;;8.46;58.44
76460;BME280;65299;46.084;18.762;2023-11-19T09:53:48;100917.63;;;8.56;57.79
76460;BME280;65299;46.084;18.762;2023-11-19T09:56:49;100923.19;;;8.43;57.11
76460;BME280;65299;46.084;18.762;2023-11-19T09:59:50;100935.31;;;8.67;56.67
76460;BME280;65299;46.084;18.762;2023-11-19T10:02:52;100945.59;;;8.91;56.05
76460;BME280;65299;46.084;18.762;2023-11-19T10:05:54;100921.53;;;8.93;57.75
76460;BME280;65299;46.084;18.762;2023-11-19T10:08:56;100922.41;;;9.10;56.03
76460;BME280;65299;46.084;18.762;2023-11-19T10:11:56;100920.63;;;8.59;55.63
76460;BME280;65299;46.084;18.762;2023-11-19T10:14:57;100921.69;;;8.23;56.68
76460;BME280;65299;46.084;18.762;2023-11-19T10:17:58;100910.75;;;8.43;55.85
76460;BME280;65299;46.084;18.762;2023-11-19T10:20:59;100904.63;;;8.54;55.13
76460;BME280;65299;46.084;18.762;2023-11-19T10:23:59;100883.22;;;8.95;55.69
76460;BME280;65299;46.084;18.762;2023-11-19T10:27:00;100878.13;;;8.77;54.80
76460;BME280;65299;46.084;18.762;2023-11-19T10:30:03;100883.63;;;9.20;54.64
76460;BME280;65299;46.084;18.762;2023-11-19T10:33:10;100868.28;;;8.89;53.54
76460;BME280;65299;46.084;18.762;2023-11-19T10:36:15;100872.09;;;9.10;54.80
76460;BME280;65299;46.084;18.762;2023-11-19T10:39:15;100867.81;;;9.09;53.64
76460;BME280;65299;46.084;18.762;2023-11-19T10:42:16;100864.63;;;8.79;54.17
76460;BME280;65299;46.084;18.762;2023-11-19T10:45:23;100859.97;;;9.14;54.46
76460;BME280;65299;46.084;18.762;2023-11-19T10:48:24;100853.22;;;9.23;54.27
76460;BME280;65299;46.084;18.762;2023-11-19T10:51:25;100858.38;;;9.13;55.67
76460;BME280;65299;46.084;18.762;2023-11-19T10:54:26;100858.06;;;9.26;54.58
76460;BME280;65299;46.084;18.762;2023-11-19T10:57:30;100847.22;;;9.11;54.29
76460;BME280;65299;46.084;18.762;2023-11-19T11:03:45;100839.00;;;9.12;54.28
76460;BME280;65299;46.084;18.762;2023-11-19T11:06:51;100829.50;;;9.28;54.55
76460;BME280;65299;46.084;18.762;2023-11-19T11:09:53;100827.56;;;9.40;53.36
76460;BME280;65299;46.084;18.762;2023-11-19T11:12:56;100824.66;;;9.25;53.52
76460;BME280;65299;46.084;18.762;2023-11-19T11:16:00;100820.88;;;9.54;54.04
76460;BME280;65299;46.084;18.762;2023-11-19T11:19:00;100813.56;;;9.61;53.74
76460;BME280;65299;46.084;18.762;2023-11-19T11:22:02;100791.25;;;9.41;53.89
76460;BME280;65299;46.084;18.762;2023-11-19T11:25:40;100782.97;;;9.92;52.41
76460;BME280;65299;46.084;18.762;2023-11-19T11:32:58;100804.44;;;9.90;53.81
76460;BME280;65299;46.084;18.762;2023-11-19T11:35:51;100811.56;;;9.68;52.90
76460;BME280;65299;46.084;18.762;2023-11-19T11:38:53;100817.31;;;9.65;52.93
76460;BME280;65299;46.084;18.762;2023-11-19T11:45:17;100793.06;;;9.73;52.84
76460;BME280;65299;46.084;18.762;2023-11-19T11:48:19;100790.75;;;9.98;52.81
76460;BME280;65299;46.084;18.762;2023-11-19T11:54:45;100776.16;;;9.79;52.83
76460;BME280;65299;46.084;18.762;2023-11-19T11:57:45;100763.44;;;9.76;52.68
76460;BME280;65299;46.084;18.762;2023-11-19T12:00:47;100765.44;;;9.69;53.05
76460;BME280;65299;46.084;18.762;2023-11-19T12:03:49;100750.72;;;9.57;53.69
76460;BME280;65299;46.084;18.762;2023-11-19T12:07:07;100748.94;;;9.84;53.64
76460;BME280;65299;46.084;18.762;2023-11-19T12:10:09;100751.41;;;9.69;54.23
76460;BME280;65299;46.084;18.762;2023-11-19T12:13:13;100742.25;;;9.81;53.61
76460;BME280;65299;46.084;18.762;2023-11-19T12:16:13;100739.44;;;10.10;53.06
76460;BME280;65299;46.084;18.762;2023-11-19T12:19:14;100739.56;;;9.76;52.78
76460;BME280;65299;46.084;18.762;2023-11-19T12:22:14;100729.53;;;9.78;52.73
76460;BME280;65299;46.084;18.762;2023-11-19T12:25:16;100731.50;;;9.66;53.46
76460;BME280;65299;46.084;18.762;2023-11-19T12:28:17;100729.22;;;9.75;53.35
76460;BME280;65299;46.084;18.762;2023-11-19T12:31:17;100733.78;;;10.01;51.97
76460;BME280;65299;46.084;18.762;2023-11-19T12:34:19;100727.97;;;10.04;52.06
76460;BME280;65299;46.084;18.762;2023-11-19T12:37:19;100722.66;;;10.04;52.91
76460;BME280;65299;46.084;18.762;2023-11-19T12:40:23;100720.50;;;10.01;52.79
76460;BME280;65299;46.084;18.762;2023-11-19T12:43:23;100700.38;;;10.27;52.74
76460;BME280;65299;46.084;18.762;2023-11-19T12:46:24;100696.91;;;9.99;53.76
76460;BME280;65299;46.084;18.762;2023-11-19T12:49:25;100686.56;;;10.25;52.68
76460;BME280;65299;46.084;18.762;2023-11-19T12:52:25;100676.41;;;10.43;52.21
76460;BME280;65299;46.084;18.762;2023-11-19T12:55:29;100669.50;;;10.42;51.95
76460;BME280;65299;46.084;18.762;2023-11-19T12:58:35;100658.91;;;9.94;53.21
76460;BME280;65299;46.084;18.762;2023-11-19T13:01:36;100676.78;;;10.03;54.04
76460;BME280;65299;46.084;18.762;2023-11-19T13:04:38;100671.44;;;9.98;53.91
76460;BME280;65299;46.084;18.762;2023-11-19T13:07:39;100684.19;;;9.80;53.95
76460;BME280;65299;46.084;18.762;2023-11-19T13:16:55;100671.63;;;9.92;54.45
76460;BME280;65299;46.084;18.762;2023-11-19T13:19:56;100665.47;;;9.86;54.47
76460;BME280;65299;46.084;18.762;2023-11-19T13:22:58;100662.19;;;10.01;54.13
76460;BME280;65299;46.084;18.762;2023-11-19T13:25:59;100675.16;;;10.24;53.63
76460;BME280;65299;46.084;18.762;2023-11-19T13:29:00;100681.25;;;10.20;53.35
76460;BME280;65299;46.084;18.762;2023-11-19T13:32:00;100678.59;;;10.20;52.36
76460;BME280;65299;46.084;18.762;2023-11-19T13:35:01;100689.13;;;10.41;52.41
76460;BME280;65299;46.084;18.762;2023-11-19T13:38:03;100673.38;;;10.30;52.11
76460;BME280;65299;46.084;18.762;2023-11-19T13:41:04;100678.25;;;10.43;52.83
76460;BME280;65299;46.084;18.762;2023-11-19T13:44:05;100673.75;;;10.17;52.92
76460;BME280;65299;46.084;18.762;2023-11-19T13:47:05;100667.75;;;9.99;52.92
76460;BME280;65299;46.084;18.762;2023-11-19T13:50:06;100661.97;;;9.81;53.64
76460;BME280;65299;46.084;18.762;2023-11-19T13:53:06;100666.34;;;10.19;54.09
76460;BME280;65299;46.084;18.762;2023-11-19T13:56:07;100661.94;;;10.29;53.72
76460;BME280;65299;46.084;18.762;2023-11-19T13:59:08;100657.56;;;10.13;53.92
76460;BME280;65299;46.084;18.762;2023-11-19T14:02:08;100658.81;;;9.84;54.21
76460;BME280;65299;46.084;18.762;2023-11-19T14:05:09;100661.25;;;10.12;53.87
76460;BME280;65299;46.084;18.762;2023-11-19T14:08:11;100660.22;;;9.91;54.63
76460;BME280;65299;46.084;18.762;2023-11-19T14:11:11;100662.81;;;9.86;54.75
76460;BME280;65299;46.084;18.762;2023-11-19T14:14:11;100656.31;;;9.99;54.17
76460;BME280;65299;46.084;18.762;2023-11-19T14:17:12;100656.75;;;10.13;54.65
76460;BME280;65299;46.084;18.762;2023-11-19T14:20:12;100652.84;;;10.20;54.11
76460;BME280;65299;46.084;18.762;2023-11-19T14:23:13;100658.91;;;10.16;55.31
76460;BME280;65299;46.084;18.762;2023-11-19T14:26:13;100661.38;;;10.00;55.83
76460;BME280;65299;46.084;18.762;2023-11-19T14:29:15;100657.84;;;9.47;56.02
76460;BME280;65299;46.084;18.762;2023-11-19T14:32:15;100649.47;;;9.55;56.33
76460;BME280;65299;46.084;18.762;2023-11-19T14:35:16;100651.47;;;9.69;56.42
76460;BME280;65299;46.084;18.762;2023-11-19T14:38:16;100661.16;;;9.80;56.38
76460;BME280;65299;46.084;18.762;2023-11-19T14:41:17;100647.53;;;9.72;56.36
76460;BME280;65299;46.084;18.762;2023-11-19T14:44:17;100643.97;;;9.61;56.82
76460;BME280;65299;46.084;18.762;2023-11-19T14:47:20;100648.59;;;9.71;56.90
76460;BME280;65299;46.084;18.762;2023-11-19T14:50:20;100653.94;;;9.76;58.03
76460;BME280;65299;46.084;18.762;2023-11-19T14:53:20;100648.59;;;9.49;57.81
76460;BME280;65299;46.084;18.762;2023-11-19T14:56:22;100645.88;;;9.66;57.58
76460;BME280;65299;46.084;18.762;2023-11-19T14:59:23;100634.88;;;9.52;58.34
76460;BME280;65299;46.084;18.762;2023-11-19T15:02:23;100621.53;;;9.47;58.39
76460;BME280;65299;46.084;18.762;2023-11-19T15:05:23;100625.84;;;9.53;58.41
76460;BME280;65299;46.084;18.762;2023-11-19T15:08:24;100631.03;;;9.43;59.75
76460;BME280;65299;46.084;18.762;2023-11-19T15:11:24;100628.47;;;9.48;59.63
76460;BME280;65299;46.084;18.762;2023-11-19T15:14:24;100631.66;;;9.50;59.14
76460;BME280;65299;46.084;18.762;2023-11-19T15:17:25;100637.22;;;9.49;59.42
76460;BME280;65299;46.084;18.762;2023-11-19T15:20:26;100625.56;;;9.50;59.66
76460;BME280;65299;46.084;18.762;2023-11-19T15:23:29;100643.03;;;9.29;59.94
76460;BME280;65299;46.084;18.762;2023-11-19T15:26:30;100634.25;;;9.24;60.56
76460;BME280;65299;46.084;18.762;2023-11-19T15:29:31;100623.63;;;9.02;60.56
76460;BME280;65299;46.084;18.762;2023-11-19T15:32:34;100638.72;;;9.01;61.58
76460;BME280;65299;46.084;18.762;2023-11-19T15:35:35;100631.22;;;9.15;60.78
76460;BME280;65299;46.084;18.762;2023-11-19T15:38:36;100619.25;;;9.12;61.54
76460;BME280;65299;46.084;18.762;2023-11-19T15:41:36;100619.28;;;8.96;61.33
76460;BME280;65299;46.084;18.762;2023-11-19T15:44:37;100618.16;;;8.92;61.05
76460;BME280;65299;46.084;18.762;2023-11-19T15:47:38;100615.63;;;8.80;61.51
76460;BME280;65299;46.084;18.762;2023-11-19T15:50:39;100619.41;;;8.68;62.26
76460;BME280;65299;46.084;18.762;2023-11-19T15:53:40;100624.63;;;8.79;61.98
76460;BME280;65299;46.084;18.762;2023-11-19T15:56:41;100635.78;;;8.81;61.74
76460;BME280;65299;46.084;18.762;2023-11-19T15:59:41;100648.59;;;8.89;60.82
76460;BME280;65299;46.084;18.762;2023-11-19T16:02:41;100641.28;;;8.80;61.22
76460;BME280;65299;46.084;18.762;2023-11-19T16:05:42;100650.28;;;8.95;61.16
76460;BME280;65299;46.084;18.762;2023-11-19T16:08:42;100649.97;;;8.75;61.07